logo
Search for airport 
image banner adimage banner adimage banner ad
image banner ad

TUPJ - Terrance B Lettsome Intl

Located in Roadtown, Virgin Islands British

ICAO - TUPJ, IATA - EIS

Data provided by Airmate  

General information

Coordinates: N18°26'44" W64°32'30"
Elevation is 16 feet MSL.
Magnetic variation is -13° East
View others Airports in (unassigned)

Operational data

Special qualification required
Current time UTC:
Current local time:
Weather
TAF: TAF TUPJ 162300Z 1700/1724 13005KT 9999 SCT020 PROB30 TEMPO 1700/1712 SHRA PROB40 TEMPO 1712/1724 SHRA
View NOTAMs / SUP AIP / TFR affecting this airport [VIEW]
Communications frequencies: [VIEW]

Runways:

RWY identifierQFULength (ft)Width (ft)SurfaceLDA (ft)
0761°464598ASPH3957
25241°464598ASPH3957

Airport contact information

Address: Roadtown Virgin Islands British

Satellite view of TUPJ